Time,TemperatureF,DewpointF,PressureIn,WindDirection,WindDirectionDegrees,WindSpeedMPH,WindSpeedGustMPH,Humidity,HourlyPrecipIn,Conditions,Clouds,dailyrainin,SoftwareType,DateUTC
2013-04-08 00:02:00,34.0,23.0,-100.00,SW,225,1.0,6.0,64,-99.99,,,-99.99,,2013-04-08 07:02:00,
2013-04-08 00:12:00,34.0,23.0,-100.00,SW,225,1.0,6.0,64,-99.99,,,-99.99,,2013-04-08 07:12:00,
2013-04-08 00:22:00,34.0,23.0,-100.00,SW,225,1.0,6.0,64,-99.99,,,-99.99,,2013-04-08 07:22:00,
2013-04-08 00:42:00,33.0,24.0,-100.00,NW,315,4.0,9.0,67,-99.99,,,-99.99,,2013-04-08 07:42:00,
2013-04-08 00:52:00,33.0,24.0,-100.00,West,270,6.0,14.0,69,-99.99,,,-99.99,,2013-04-08 07:52:00,
2013-04-08 01:02:00,33.0,24.0,-100.00,NW,315,6.0,10.0,68,-99.99,,,-99.99,,2013-04-08 08:02:00,
2013-04-08 01:12:00,33.0,24.0,-100.00,NW,315,6.0,10.0,68,-99.99,,,-99.99,,2013-04-08 08:12:00,
2013-04-08 01:22:00,33.0,24.0,-100.00,NW,315,6.0,10.0,68,-99.99,,,-99.99,,2013-04-08 08:22:00,
2013-04-08 01:42:00,32.0,23.0,-100.00,NW,315,4.0,6.0,68,-99.99,,,-99.99,,2013-04-08 08:42:00,
2013-04-08 01:52:00,32.0,23.0,-100.00,NW,315,3.0,6.0,68,-99.99,,,-99.99,,2013-04-08 08:52:00,
2013-04-08 02:02:00,32.0,23.0,-100.00,West,270,4.0,8.0,69,-99.99,,,-99.99,,2013-04-08 09:02:00,
2013-04-08 02:12:00,32.0,23.0,-100.00,West,270,4.0,8.0,69,-99.99,,,-99.99,,2013-04-08 09:12:00,
2013-04-08 02:22:00,32.0,23.0,-100.00,West,270,3.0,6.0,69,-99.99,,,-99.99,,2013-04-08 09:22:00,
2013-04-08 02:33:00,32.0,23.0,-100.00,NW,315,4.0,6.0,69,-99.99,,,-99.99,,2013-04-08 09:33:00,
2013-04-08 02:42:00,32.0,23.0,-100.00,NW,315,4.0,6.0,69,-99.99,,,-99.99,,2013-04-08 09:42:00,
2013-04-08 02:52:00,32.0,23.0,-100.00,NW,315,1.0,4.0,69,-99.99,,,-99.99,,2013-04-08 09:52:00,
2013-04-08 03:03:00,32.0,23.0,-100.00,West,270,4.0,6.0,69,-99.99,,,-99.99,,2013-04-08 10:03:00,
2013-04-08 03:13:00,32.0,23.0,-100.00,West,270,4.0,6.0,69,-99.99,,,-99.99,,2013-04-08 10:13:00,
2013-04-08 03:23:00,32.0,23.0,-100.00,NW,315,7.0,9.0,68,-99.99,,,-99.99,,2013-04-08 10:23:00,
2013-04-08 03:32:00,32.0,23.0,-100.00,NW,315,4.0,9.0,67,-99.99,,,-99.99,,2013-04-08 10:32:00,
2013-04-08 03:42:00,32.0,23.0,-100.00,NW,315,4.0,9.0,67,-99.99,,,-99.99,,2013-04-08 10:42:00,
2013-04-08 03:52:00,32.0,23.0,-100.00,NW,315,6.0,9.0,67,-99.99,,,-99.99,,2013-04-08 10:52:00,
2013-04-08 04:02:00,32.0,22.0,-100.00,NW,315,4.0,6.0,67,-99.99,,,-99.99,,2013-04-08 11:02:00,
2013-04-08 04:12:00,32.0,22.0,-100.00,NW,315,4.0,6.0,67,-99.99,,,-99.99,,2013-04-08 11:12:00,
2013-04-08 04:22:00,31.0,22.0,-100.00,SW,225,1.0,3.0,68,-99.99,,,-99.99,,2013-04-08 11:22:00,
2013-04-08 04:32:00,31.0,22.0,-100.00,SW,225,3.0,6.0,69,-99.99,,,-99.99,,2013-04-08 11:32:00,
2013-04-08 04:42:00,31.0,22.0,-100.00,SW,225,3.0,6.0,69,-99.99,,,-99.99,,2013-04-08 11:42:00,
2013-04-08 04:52:00,30.0,21.0,-100.00,SW,225,1.0,4.0,70,-99.99,,,-99.99,,2013-04-08 11:52:00,
2013-04-08 05:02:00,29.0,22.0,-100.00,SW,225,2.0,4.0,73,-99.99,,,-99.99,,2013-04-08 12:02:00,
2013-04-08 05:12:00,29.0,22.0,-100.00,SW,225,2.0,4.0,73,-99.99,,,-99.99,,2013-04-08 12:12:00,
2013-04-08 05:22:00,30.0,23.0,-100.00,SW,225,4.0,6.0,75,-99.99,,,-99.99,,2013-04-08 12:22:00,
2013-04-08 05:32:00,30.0,23.0,-100.00,SW,225,3.0,9.0,74,-99.99,,,-99.99,,2013-04-08 12:32:00,
2013-04-08 05:42:00,30.0,23.0,-100.00,SW,225,3.0,9.0,74,-99.99,,,-99.99,,2013-04-08 12:42:00,
2013-04-08 05:52:00,31.0,23.0,-100.00,SW,225,3.0,6.0,73,-99.99,,,-99.99,,2013-04-08 12:52:00,
2013-04-08 06:02:00,31.0,23.0,-100.00,SW,225,4.0,7.0,71,-99.99,,,-99.99,,2013-04-08 13:02:00,
2013-04-08 06:12:00,31.0,23.0,-100.00,SW,225,4.0,7.0,71,-99.99,,,-99.99,,2013-04-08 13:12:00,
2013-04-08 06:22:00,30.0,22.0,-100.00,South,180,3.0,5.0,71,-99.99,,,-99.99,,2013-04-08 13:22:00,
2013-04-08 06:32:00,30.0,23.0,-100.00,South,180,4.0,6.0,73,-99.99,,,-99.99,,2013-04-08 13:32:00,
2013-04-08 06:42:00,30.0,23.0,-100.00,South,180,4.0,6.0,73,-99.99,,,-99.99,,2013-04-08 13:42:00,
2013-04-08 06:52:00,29.0,22.0,-100.00,South,180,3.0,4.0,74,-99.99,,,-99.99,,2013-04-08 13:52:00,
2013-04-08 07:02:00,29.0,22.0,-100.00,South,180,3.0,4.0,75,-99.99,,,-99.99,,2013-04-08 14:02:00,
2013-04-08 07:12:00,29.0,22.0,-100.00,South,180,3.0,4.0,75,-99.99,,,-99.99,,2013-04-08 14:12:00,
2013-04-08 07:22:00,29.0,22.0,-100.00,SW,225,5.0,8.0,75,-99.99,,,-99.99,,2013-04-08 14:22:00,
2013-04-08 07:32:00,29.0,23.0,-100.00,SE,135,6.0,7.0,75,-99.99,,,-99.99,,2013-04-08 14:32:00,
2013-04-08 07:42:00,29.0,23.0,-100.00,SE,135,6.0,7.0,75,-99.99,,,-99.99,,2013-04-08 14:42:00,
2013-04-08 07:52:00,30.0,23.0,-100.00,SW,225,5.0,7.0,74,-99.99,,,-99.99,,2013-04-08 14:52:00,
2013-04-08 08:02:00,30.0,23.0,-100.00,South,180,3.0,7.0,74,-99.99,,,-99.99,,2013-04-08 15:02:00,
2013-04-08 08:12:00,30.0,23.0,-100.00,South,180,3.0,7.0,74,-99.99,,,-99.99,,2013-04-08 15:12:00,
2013-04-08 08:22:00,32.0,24.0,-100.00,East,90,1.0,6.0,72,-99.99,,,-99.99,,2013-04-08 15:22:00,
2013-04-08 08:33:00,33.0,24.0,-100.00,SW,225,4.0,6.0,67,-99.99,,,-99.99,,2013-04-08 15:33:00,
2013-04-08 08:42:00,33.0,24.0,-100.00,SW,225,4.0,6.0,67,-99.99,,,-99.99,,2013-04-08 15:42:00,
2013-04-08 08:52:00,33.0,23.0,-100.00,SE,135,0.0,5.0,67,-99.99,,,-99.99,,2013-04-08 15:52:00,
2013-04-08 09:03:00,34.0,22.0,-100.00,North,0,8.0,11.0,61,-99.99,,,-99.99,,2013-04-08 16:03:00,
2013-04-08 09:12:00,34.0,22.0,-100.00,North,0,8.0,11.0,61,-99.99,,,-99.99,,2013-04-08 16:12:00,
2013-04-08 09:22:00,35.0,22.0,-100.00,NW,315,8.0,17.0,59,-99.99,,,-99.99,,2013-04-08 16:22:00,
2013-04-08 09:32:00,35.0,22.0,-100.00,NW,315,8.0,17.0,59,-99.99,,,-99.99,,2013-04-08 16:32:00,
2013-04-08 09:42:00,36.0,22.0,-100.00,West,270,10.0,17.0,57,-99.99,,,-99.99,,2013-04-08 16:42:00,
2013-04-08 09:52:00,37.0,22.0,-100.00,West,270,12.0,22.0,55,-99.99,,,-99.99,,2013-04-08 16:52:00,
2013-04-08 10:02:00,37.0,22.0,-100.00,West,270,11.0,19.0,54,-99.99,,,-99.99,,2013-04-08 17:02:00,
2013-04-08 10:12:00,37.0,22.0,-100.00,West,270,11.0,19.0,54,-99.99,,,-99.99,,2013-04-08 17:12:00,
2013-04-08 10:22:00,38.0,22.0,-100.00,NW,315,12.0,19.0,52,-99.99,,,-99.99,,2013-04-08 17:22:00,
2013-04-08 10:32:00,40.0,23.0,-100.00,NW,315,11.0,21.0,51,-99.99,,,-99.99,,2013-04-08 17:32:00,
2013-04-08 10:43:00,40.0,23.0,-100.00,NW,315,11.0,21.0,51,-99.99,,,-99.99,,2013-04-08 17:43:00,
2013-04-08 10:52:00,41.0,23.0,-100.00,NW,315,7.0,16.0,50,-99.99,,,-99.99,,2013-04-08 17:52:00,
2013-04-08 11:02:00,41.0,24.0,-100.00,NW,315,11.0,20.0,50,-99.99,,,-99.99,,2013-04-08 18:02:00,
2013-04-08 11:12:00,41.0,23.0,-100.00,North,0,8.0,17.0,49,-99.99,,,-99.99,,2013-04-08 18:12:00,
2013-04-08 11:22:00,41.0,23.0,-100.00,North,0,8.0,17.0,49,-99.99,,,-99.99,,2013-04-08 18:22:00,
2013-04-08 11:32:00,42.0,24.0,-100.00,NW,315,10.0,16.0,48,-99.99,,,-99.99,,2013-04-08 18:32:00,
2013-04-08 11:42:00,42.0,24.0,-100.00,NW,315,10.0,16.0,48,-99.99,,,-99.99,,2013-04-08 18:42:00,
2013-04-08 11:52:00,43.0,24.0,-100.00,NW,315,9.0,17.0,47,-99.99,,,-99.99,,2013-04-08 18:52:00,
2013-04-08 12:02:00,42.0,23.0,-100.00,West,270,11.0,17.0,47,-99.99,,,-99.99,,2013-04-08 19:02:00,
2013-04-08 12:12:00,42.0,23.0,-100.00,NW,315,9.0,19.0,48,-99.99,,,-99.99,,2013-04-08 19:12:00,
2013-04-08 12:22:00,42.0,23.0,-100.00,NW,315,9.0,19.0,48,-99.99,,,-99.99,,2013-04-08 19:22:00,
2013-04-08 12:33:00,42.0,24.0,-100.00,NW,315,9.0,19.0,48,-99.99,,,-99.99,,2013-04-08 19:33:00,
2013-04-08 12:42:00,42.0,24.0,-100.00,NW,315,7.0,13.0,48,-99.99,,,-99.99,,2013-04-08 19:42:00,
2013-04-08 12:52:00,42.0,24.0,-100.00,NW,315,7.0,13.0,48,-99.99,,,-99.99,,2013-04-08 19:52:00,
2013-04-08 13:02:00,42.0,24.0,-100.00,NW,315,9.0,16.0,48,-99.99,,,-99.99,,2013-04-08 20:02:00,
2013-04-08 13:12:00,42.0,24.0,-100.00,NW,315,9.0,16.0,48,-99.99,,,-99.99,,2013-04-08 20:12:00,
2013-04-08 13:22:00,42.0,24.0,-100.00,North,0,13.0,19.0,47,-99.99,,,-99.99,,2013-04-08 20:22:00,
2013-04-08 13:33:00,43.0,24.0,-100.00,NW,315,8.0,17.0,47,-99.99,,,-99.99,,2013-04-08 20:33:00,
2013-04-08 13:42:00,43.0,24.0,-100.00,NW,315,8.0,17.0,47,-99.99,,,-99.99,,2013-04-08 20:42:00,
2013-04-08 13:52:00,43.0,24.0,-100.00,NW,315,12.0,23.0,47,-99.99,,,-99.99,,2013-04-08 20:52:00,
2013-04-08 14:02:00,43.0,25.0,-100.00,NW,315,10.0,21.0,48,-99.99,,,-99.99,,2013-04-08 21:02:00,
2013-04-08 14:12:00,43.0,25.0,-100.00,NW,315,10.0,21.0,48,-99.99,,,-99.99,,2013-04-08 21:12:00,
2013-04-08 14:22:00,43.0,24.0,-100.00,NW,315,11.0,21.0,47,-99.99,,,-99.99,,2013-04-08 21:22:00,
2013-04-08 14:32:00,44.0,25.0,-100.00,NW,315,5.0,20.0,47,-99.99,,,-99.99,,2013-04-08 21:32:00,
2013-04-08 14:43:00,44.0,25.0,-100.00,NW,315,5.0,20.0,47,-99.99,,,-99.99,,2013-04-08 21:43:00,
2013-04-08 14:52:00,43.0,24.0,-100.00,NW,315,11.0,19.0,46,-99.99,,,-99.99,,2013-04-08 21:52:00,
2013-04-08 15:02:00,45.0,25.0,-100.00,West,270,11.0,18.0,46,-99.99,,,-99.99,,2013-04-08 22:02:00,
2013-04-08 15:12:00,45.0,25.0,-100.00,West,270,11.0,18.0,46,-99.99,,,-99.99,,2013-04-08 22:12:00,
2013-04-08 15:22:00,44.0,24.0,-100.00,NW,315,11.0,22.0,46,-99.99,,,-99.99,,2013-04-08 22:22:00,
2013-04-08 15:32:00,44.0,24.0,-100.00,NW,315,11.0,22.0,46,-99.99,,,-99.99,,2013-04-08 22:32:00,
2013-04-08 15:42:00,45.0,25.0,-100.00,North,0,11.0,20.0,46,-99.99,,,-99.99,,2013-04-08 22:42:00,
2013-04-08 15:52:00,45.0,26.0,-100.00,NW,315,13.0,19.0,46,-99.99,,,-99.99,,2013-04-08 22:52:00,
2013-04-08 16:02:00,44.0,25.0,-100.00,NW,315,14.0,21.0,46,-99.99,,,-99.99,,2013-04-08 23:02:00,
2013-04-08 16:12:00,44.0,25.0,-100.00,NW,315,14.0,21.0,46,-99.99,,,-99.99,,2013-04-08 23:12:00,
2013-04-08 16:22:00,44.0,25.0,-100.00,NW,315,14.0,21.0,46,-99.99,,,-99.99,,2013-04-08 23:22:00,
2013-04-08 16:32:00,45.0,25.0,-100.00,West,270,13.0,21.0,45,-99.99,,,-99.99,,2013-04-08 23:32:00,
2013-04-08 16:42:00,45.0,25.0,-100.00,West,270,13.0,21.0,45,-99.99,,,-99.99,,2013-04-08 23:42:00,
2013-04-08 16:52:00,45.0,25.0,-100.00,NW,315,10.0,19.0,45,-99.99,,,-99.99,,2013-04-08 23:52:00,
2013-04-08 17:02:00,45.0,25.0,-100.00,NW,315,10.0,19.0,45,-99.99,,,-99.99,,2013-04-09 00:02:00,
2013-04-08 17:12:00,45.0,25.0,-100.00,NW,315,10.0,19.0,45,-99.99,,,-99.99,,2013-04-09 00:12:00,
2013-04-08 17:22:00,46.0,26.0,-100.00,NW,315,9.0,19.0,44,-99.99,,,-99.99,,2013-04-09 00:22:00,
2013-04-08 17:32:00,46.0,26.0,-100.00,NW,315,9.0,19.0,44,-99.99,,,-99.99,,2013-04-09 00:32:00,
2013-04-08 17:42:00,46.0,26.0,-100.00,NW,315,9.0,19.0,44,-99.99,,,-99.99,,2013-04-09 00:42:00,
2013-04-08 17:52:00,45.0,25.0,-100.00,NW,315,12.0,19.0,45,-99.99,,,-99.99,,2013-04-09 00:52:00,
2013-04-08 18:02:00,44.0,24.0,-100.00,NW,315,15.0,20.0,45,-99.99,,,-99.99,,2013-04-09 01:02:00,
2013-04-08 18:12:00,44.0,24.0,-100.00,NW,315,15.0,20.0,45,-99.99,,,-99.99,,2013-04-09 01:12:00,
2013-04-08 18:22:00,45.0,25.0,-100.00,NW,315,13.0,17.0,45,-99.99,,,-99.99,,2013-04-09 01:22:00,
2013-04-08 18:42:00,44.0,24.0,-100.00,NW,315,11.0,18.0,45,-99.99,,,-99.99,,2013-04-09 01:42:00,
2013-04-08 18:52:00,44.0,25.0,-100.00,West,270,10.0,19.0,46,-99.99,,,-99.99,,2013-04-09 01:52:00,
2013-04-08 19:02:00,44.0,25.0,-100.00,NW,315,11.0,18.0,47,-99.99,,,-99.99,,2013-04-09 02:02:00,
2013-04-08 19:12:00,44.0,25.0,-100.00,NW,315,11.0,18.0,47,-99.99,,,-99.99,,2013-04-09 02:12:00,
2013-04-08 19:22:00,43.0,24.0,-100.00,West,270,9.0,17.0,47,-99.99,,,-99.99,,2013-04-09 02:22:00,
2013-04-08 19:32:00,43.0,24.0,-100.00,NW,315,9.0,16.0,48,-99.99,,,-99.99,,2013-04-09 02:32:00,
2013-04-08 19:42:00,43.0,24.0,-100.00,NW,315,9.0,16.0,48,-99.99,,,-99.99,,2013-04-09 02:42:00,
2013-04-08 19:52:00,41.0,24.0,-100.00,West,270,9.0,20.0,50,-99.99,,,-99.99,,2013-04-09 02:52:00,
2013-04-08 20:02:00,41.0,24.0,-100.00,NW,315,8.0,13.0,51,-99.99,,,-99.99,,2013-04-09 03:02:00,
2013-04-08 20:12:00,41.0,24.0,-100.00,NW,315,8.0,13.0,51,-99.99,,,-99.99,,2013-04-09 03:12:00,
2013-04-08 20:21:00,40.0,24.0,-100.00,NW,315,11.0,14.0,51,-99.99,,,-99.99,,2013-04-09 03:21:00,
2013-04-08 20:32:00,40.0,24.0,-100.00,NW,315,7.0,17.0,53,-99.99,,,-99.99,,2013-04-09 03:32:00,
2013-04-08 20:43:00,40.0,24.0,-100.00,NW,315,7.0,17.0,53,-99.99,,,-99.99,,2013-04-09 03:43:00,
2013-04-08 20:52:00,39.0,24.0,-100.00,NW,315,6.0,11.0,54,-99.99,,,-99.99,,2013-04-09 03:52:00,
2013-04-08 21:02:00,38.0,24.0,-100.00,West,270,5.0,10.0,55,-99.99,,,-99.99,,2013-04-09 04:02:00,
2013-04-08 21:13:00,38.0,24.0,-100.00,West,270,5.0,10.0,55,-99.99,,,-99.99,,2013-04-09 04:13:00,
2013-04-08 21:22:00,38.0,24.0,-100.00,West,270,6.0,11.0,56,-99.99,,,-99.99,,2013-04-09 04:22:00,
2013-04-08 21:32:00,38.0,24.0,-100.00,NW,315,7.0,12.0,57,-99.99,,,-99.99,,2013-04-09 04:32:00,
2013-04-08 21:42:00,38.0,24.0,-100.00,NW,315,7.0,12.0,57,-99.99,,,-99.99,,2013-04-09 04:42:00,
2013-04-08 21:52:00,38.0,24.0,-100.00,NW,315,7.0,12.0,57,-99.99,,,-99.99,,2013-04-09 04:52:00,
2013-04-08 22:02:00,38.0,24.0,-100.00,NW,315,3.0,10.0,56,-99.99,,,-99.99,,2013-04-09 05:02:00,
2013-04-08 22:12:00,38.0,24.0,-100.00,NW,315,3.0,10.0,56,-99.99,,,-99.99,,2013-04-09 05:12:00,
2013-04-08 22:22:00,37.0,23.0,-100.00,SE,135,2.0,3.0,56,-99.99,,,-99.99,,2013-04-09 05:22:00,
2013-04-08 22:32:00,36.0,23.0,-100.00,NW,315,1.0,2.0,58,-99.99,,,-99.99,,2013-04-09 05:32:00,
2013-04-08 22:42:00,36.0,23.0,-100.00,NW,315,1.0,2.0,58,-99.99,,,-99.99,,2013-04-09 05:42:00,
2013-04-08 22:52:00,37.0,23.0,-100.00,NW,315,0.0,3.0,58,-99.99,,,-99.99,,2013-04-09 05:52:00,
2013-04-08 23:02:00,35.0,23.0,-100.00,NE,45,2.0,4.0,60,-99.99,,,-99.99,,2013-04-09 06:02:00,
2013-04-08 23:12:00,35.0,23.0,-100.00,NE,45,2.0,4.0,60,-99.99,,,-99.99,,2013-04-09 06:12:00,
2013-04-08 23:22:00,35.0,23.0,-100.00,NW,315,0.0,2.0,61,-99.99,,,-99.99,,2013-04-09 06:22:00,
2013-04-08 23:32:00,34.0,23.0,-100.00,NW,315,1.0,2.0,63,-99.99,,,-99.99,,2013-04-09 06:32:00,
2013-04-08 23:42:00,34.0,23.0,-100.00,NW,315,1.0,2.0,63,-99.99,,,-99.99,,2013-04-09 06:42:00,
2013-04-08 23:52:00,34.0,23.0,-100.00,NW,315,0.0,3.0,65,-99.99,,,-99.99,,2013-04-09 06:52:00,